createdAt,value
2023-02-20T00:00:05.731Z,4.97
2023-02-20T00:02:32.248Z,4.97
2023-02-20T00:04:58.701Z,4.68
2023-02-20T00:07:25.123Z,4.68
2023-02-20T00:09:51.530Z,4.30
2023-02-20T00:12:17.959Z,4.28
2023-02-20T00:14:44.786Z,4.53
2023-02-20T00:17:11.195Z,4.18
2023-02-20T00:19:37.650Z,3.95
2023-02-20T00:22:04.024Z,4.68
2023-02-20T00:24:30.456Z,4.00
2023-02-20T00:26:56.909Z,4.40
2023-02-20T00:29:24.459Z,3.75
2023-02-20T00:31:56.155Z,3.40
2023-02-20T00:34:24.094Z,3.67
2023-02-20T00:36:50.606Z,4.10
2023-02-20T00:39:17.160Z,3.80
2023-02-20T00:41:43.615Z,3.90
2023-02-20T00:44:10.055Z,3.92
2023-02-20T00:46:36.722Z,4.05
2023-02-20T00:49:03.720Z,3.92
2023-02-20T00:51:31.405Z,3.70
2023-02-20T00:53:57.798Z,3.70
2023-02-20T00:56:24.202Z,3.85
2023-02-20T00:58:50.626Z,3.78
2023-02-20T01:01:17.136Z,4.10
2023-02-20T01:03:43.744Z,3.60
2023-02-20T01:06:10.483Z,3.28
2023-02-20T01:08:37.022Z,3.83
2023-02-20T01:11:03.531Z,3.88
2023-02-20T01:13:29.922Z,4.57
2023-02-20T01:15:56.552Z,3.00
2023-02-20T01:18:22.980Z,3.72
2023-02-20T01:20:49.378Z,3.88
2023-02-20T01:23:15.812Z,4.18
2023-02-20T01:25:42.366Z,3.75
2023-02-20T01:28:08.748Z,3.78
2023-02-20T01:30:35.163Z,3.35
2023-02-20T01:33:01.736Z,3.90
2023-02-20T01:35:32.047Z,3.80
2023-02-20T01:37:59.646Z,4.30
2023-02-20T01:40:27.723Z,4.03
2023-02-20T01:42:54.322Z,4.32
2023-02-20T01:45:23.825Z,4.10
2023-02-20T01:47:52.312Z,3.78
2023-02-20T01:50:21.699Z,4.07
2023-02-20T01:52:51.371Z,3.88
2023-02-20T01:55:21.782Z,4.13
2023-02-20T01:58:02.101Z,3.83
2023-02-20T02:00:28.795Z,3.67
2023-02-20T02:02:58.833Z,3.90
2023-02-20T02:05:25.509Z,3.90
2023-02-20T02:07:52.218Z,3.88
2023-02-20T02:10:22.757Z,4.18
2023-02-20T02:12:51.765Z,4.03
2023-02-20T02:15:20.238Z,3.90
2023-02-20T02:18:08.470Z,4.20
2023-02-20T02:21:11.883Z,3.78
2023-02-20T02:23:41.263Z,4.18
2023-02-20T02:26:38.844Z,3.72
2023-02-20T02:29:28.152Z,3.92
2023-02-20T02:32:22.215Z,4.18
2023-02-20T02:35:03.831Z,4.20
2023-02-20T02:37:32.312Z,3.90
2023-02-20T02:40:28.573Z,4.38
2023-02-20T02:43:08.323Z,4.53
2023-02-20T02:45:40.757Z,4.47
2023-02-20T02:48:46.936Z,4.38
2023-02-20T02:51:19.369Z,4.35
2023-02-20T02:54:08.843Z,4.28
2023-02-20T02:56:41.085Z,4.00
2023-02-20T02:59:09.845Z,3.95
2023-02-20T03:01:41.719Z,3.97
2023-02-20T03:04:09.681Z,4.22
2023-02-20T03:06:39.267Z,4.05
2023-02-20T03:09:10.046Z,4.03
2023-02-20T03:11:36.714Z,4.18
2023-02-20T03:14:25.483Z,4.38
2023-02-20T03:17:26.480Z,4.35
2023-02-20T03:19:55.347Z,4.57
2023-02-20T03:22:38.853Z,4.05
2023-02-20T03:25:12.649Z,4.88
2023-02-20T03:27:54.503Z,4.90
2023-02-20T03:30:36.419Z,6.65
2023-02-20T03:33:27.736Z,6.25
2023-02-20T03:36:14.783Z,5.85
2023-02-20T03:39:01.006Z,5.70
2023-02-20T03:41:47.575Z,5.70
2023-02-20T03:44:15.432Z,5.68
2023-02-20T03:46:44.217Z,5.82
2023-02-20T03:49:13.347Z,5.50
2023-02-20T03:51:40.668Z,5.57
2023-02-20T03:54:07.813Z,5.13
2023-02-20T03:56:41.567Z,5.80
2023-02-20T03:59:26.669Z,5.57
2023-02-20T04:02:00.769Z,5.75
2023-02-20T04:04:32.439Z,5.10
2023-02-20T04:06:59.746Z,4.22
2023-02-20T04:09:29.420Z,4.55
2023-02-20T04:12:07.875Z,4.60
2023-02-20T04:14:34.968Z,4.82
2023-02-20T04:17:05.057Z,5.28
2023-02-20T04:19:31.514Z,4.78
2023-02-20T04:22:01.911Z,4.95
2023-02-20T04:24:35.012Z,4.82
2023-02-20T04:27:01.533Z,4.55
2023-02-20T04:29:28.360Z,4.53
2023-02-20T04:31:54.779Z,4.97
2023-02-20T04:34:21.222Z,4.85
2023-02-20T04:36:50.876Z,5.13
2023-02-20T04:39:17.283Z,5.53
2023-02-20T04:41:43.690Z,5.25
2023-02-20T04:44:28.697Z,5.68
2023-02-20T04:46:55.131Z,4.88
2023-02-20T04:49:21.542Z,5.05
2023-02-20T04:51:47.960Z,5.00
2023-02-20T04:54:14.421Z,5.25
2023-02-20T04:56:40.839Z,4.82
2023-02-20T04:59:07.419Z,4.68
2023-02-20T05:01:34.079Z,4.95
2023-02-20T05:04:00.608Z,4.53
2023-02-20T05:06:27.053Z,5.15
2023-02-20T05:08:53.495Z,4.70
2023-02-20T05:11:19.907Z,4.50
2023-02-20T05:13:46.324Z,5.05
2023-02-20T05:16:14.265Z,5.45
2023-02-20T05:18:40.934Z,4.72
2023-02-20T05:21:25.866Z,6.38
2023-02-20T05:23:52.291Z,6.70
2023-02-20T05:26:20.913Z,7.32
2023-02-20T05:28:47.588Z,7.13
2023-02-20T05:31:17.286Z,7.22
2023-02-20T05:33:44.102Z,6.35
2023-02-20T05:36:10.802Z,6.63
2023-02-20T05:38:37.434Z,6.50
2023-02-20T05:41:04.181Z,8.85
2023-02-20T05:43:30.627Z,8.18
2023-02-20T05:45:57.065Z,8.25
2023-02-20T05:48:23.470Z,7.15
2023-02-20T05:50:50.604Z,6.55
2023-02-20T05:53:17.262Z,5.88
2023-02-20T05:55:43.782Z,5.80
2023-02-20T05:58:10.188Z,5.00
2023-02-20T06:00:36.597Z,5.22
2023-02-20T06:03:06.612Z,5.32
2023-02-20T06:05:33.066Z,5.35
2023-02-20T06:07:59.454Z,5.20
2023-02-20T06:10:25.839Z,5.78
2023-02-20T06:12:52.262Z,5.47
2023-02-20T06:15:18.639Z,6.78
2023-02-20T06:17:45.066Z,5.95
2023-02-20T06:20:11.617Z,5.57
2023-02-20T06:22:38.049Z,5.72
2023-02-20T06:25:04.721Z,4.72
2023-02-20T06:27:31.473Z,5.22
2023-02-20T06:29:57.871Z,4.90
2023-02-20T06:32:24.308Z,5.40
2023-02-20T06:34:50.804Z,5.00
2023-02-20T06:37:17.699Z,5.40
2023-02-20T06:39:46.635Z,5.10
2023-02-20T06:42:13.073Z,6.55
2023-02-20T06:44:39.739Z,6.10
2023-02-20T06:47:08.975Z,10.20
2023-02-20T06:49:39.073Z,9.30
2023-02-20T06:52:06.253Z,9.57
2023-02-20T06:54:33.835Z,8.20
2023-02-20T06:57:00.894Z,9.50
2023-02-20T06:59:27.331Z,11.18
2023-02-20T07:01:54.038Z,10.43
2023-02-20T07:04:28.809Z,8.65
2023-02-20T07:06:55.603Z,6.47
2023-02-20T07:09:22.191Z,6.20
2023-02-20T07:11:51.633Z,6.75
2023-02-20T07:14:18.199Z,7.13
2023-02-20T07:16:44.655Z,7.88
2023-02-20T07:19:11.129Z,7.95
2023-02-20T07:21:37.591Z,7.93
2023-02-20T07:24:04.355Z,7.03
2023-02-20T07:26:31.000Z,6.85
2023-02-20T07:29:01.167Z,6.88
2023-02-20T07:31:28.441Z,6.85
2023-02-20T07:33:55.020Z,6.57
2023-02-20T07:36:21.427Z,6.90
2023-02-20T07:38:58.866Z,8.27
2023-02-20T07:41:26.565Z,7.47
2023-02-20T07:43:52.976Z,7.22
2023-02-20T07:46:20.565Z,7.07
2023-02-20T07:48:47.341Z,7.70
2023-02-20T07:51:14.358Z,8.63
2023-02-20T07:53:43.691Z,9.02
2023-02-20T07:56:10.120Z,8.60
2023-02-20T07:58:36.629Z,10.05
2023-02-20T08:01:03.108Z,10.40
2023-02-20T08:03:29.524Z,9.95
2023-02-20T08:05:55.951Z,9.75
2023-02-20T08:08:24.405Z,10.10
2023-02-20T08:10:57.166Z,10.30
2023-02-20T08:13:29.912Z,11.10
2023-02-20T08:15:56.366Z,10.80
2023-02-20T08:18:24.025Z,10.23
2023-02-20T08:20:52.109Z,11.65
2023-02-20T08:23:20.942Z,12.07
2023-02-20T08:25:50.317Z,10.77
2023-02-20T08:28:16.850Z,12.98
2023-02-20T08:30:43.473Z,14.35
2023-02-20T08:33:09.912Z,17.10
2023-02-20T08:35:36.710Z,17.20
2023-02-20T08:38:07.960Z,16.33
2023-02-20T08:40:35.416Z,14.27
2023-02-20T08:43:01.999Z,13.40
2023-02-20T08:45:28.676Z,14.02
2023-02-20T08:48:01.681Z,12.75
2023-02-20T08:50:28.153Z,11.93
2023-02-20T08:52:54.538Z,12.40
2023-02-20T08:55:21.341Z,12.32
2023-02-20T08:57:47.773Z,11.95
2023-02-20T09:00:15.547Z,11.75
2023-02-20T09:02:42.626Z,11.75
2023-02-20T09:05:09.838Z,12.13
2023-02-20T09:07:36.268Z,11.50
2023-02-20T09:10:02.896Z,12.27
2023-02-20T09:12:30.807Z,12.02
2023-02-20T09:14:57.272Z,12.52
2023-02-20T09:17:23.676Z,12.68
2023-02-20T09:19:50.171Z,12.00
2023-02-20T09:22:16.641Z,11.63
2023-02-20T09:24:43.121Z,12.48
2023-02-20T09:27:09.987Z,10.05
2023-02-20T09:29:40.868Z,11.30
2023-02-20T09:32:07.737Z,11.07
2023-02-20T09:34:34.464Z,11.77
2023-02-20T09:37:00.861Z,10.82
2023-02-20T09:39:27.314Z,11.20
2023-02-20T09:42:03.357Z,9.85
2023-02-20T09:44:36.516Z,10.63
2023-02-20T09:47:15.642Z,11.20
2023-02-20T09:49:42.124Z,11.85
2023-02-20T09:52:13.286Z,21.02
2023-02-20T09:54:45.332Z,15.93
2023-02-20T09:57:21.568Z,13.27
2023-02-20T09:59:51.298Z,10.57
2023-02-20T10:02:21.427Z,10.10
2023-02-20T10:05:00.952Z,10.23
2023-02-20T10:07:27.830Z,9.43
2023-02-20T10:09:54.959Z,9.18
2023-02-20T10:13:03.380Z,9.07
2023-02-20T10:15:50.100Z,10.95
2023-02-20T10:18:46.143Z,10.02
2023-02-20T10:21:30.523Z,10.45
2023-02-20T10:24:23.125Z,9.75
2023-02-20T10:26:55.083Z,9.50
2023-02-20T10:29:27.595Z,8.88
2023-02-20T10:32:01.445Z,8.85
2023-02-20T10:34:31.853Z,10.07
2023-02-20T10:37:19.179Z,8.65
2023-02-20T10:39:53.334Z,8.38
2023-02-20T10:42:47.041Z,9.00
2023-02-20T10:45:28.591Z,8.35
2023-02-20T10:48:03.247Z,8.40
2023-02-20T10:50:59.257Z,8.90
2023-02-20T10:53:34.197Z,8.00
2023-02-20T10:56:08.049Z,7.90
2023-02-20T10:58:53.389Z,8.27
2023-02-20T11:01:23.030Z,8.02
2023-02-20T11:04:12.267Z,7.50
2023-02-20T11:06:47.334Z,7.47
2023-02-20T11:09:13.891Z,8.02
2023-02-20T11:11:45.750Z,7.32
2023-02-20T11:14:15.364Z,7.05
2023-02-20T11:17:01.988Z,7.18
2023-02-20T11:19:32.829Z,7.65
2023-02-20T11:21:59.343Z,7.95
2023-02-20T11:24:36.820Z,7.72
2023-02-20T11:27:07.594Z,7.75
2023-02-20T11:29:41.277Z,7.28
2023-02-20T11:32:28.061Z,7.47
2023-02-20T11:35:19.627Z,7.70
2023-02-20T11:37:54.870Z,7.07
2023-02-20T11:40:31.554Z,7.97
2023-02-20T11:43:11.630Z,7.53
2023-02-20T11:45:38.219Z,7.25
2023-02-20T11:48:16.870Z,7.30
2023-02-20T11:50:44.190Z,8.05
2023-02-20T11:53:28.183Z,8.00
2023-02-20T11:56:13.021Z,7.75
2023-02-20T11:58:40.510Z,7.40
2023-02-20T12:01:07.562Z,7.75
2023-02-20T12:03:35.524Z,7.50
2023-02-20T12:06:39.156Z,7.28
2023-02-20T12:09:06.990Z,7.53
2023-02-20T12:11:33.418Z,7.43
2023-02-20T12:14:00.928Z,8.27
2023-02-20T12:16:35.463Z,10.85
2023-02-20T12:19:13.747Z,14.10
2023-02-20T12:21:45.902Z,9.80
2023-02-20T12:24:18.087Z,7.90
2023-02-20T12:26:55.087Z,7.82
2023-02-20T12:29:49.494Z,7.32
2023-02-20T12:32:25.835Z,6.75
2023-02-20T12:34:59.664Z,5.90
2023-02-20T12:37:50.938Z,6.03
2023-02-20T12:40:24.761Z,6.05
2023-02-20T12:43:07.951Z,6.00
2023-02-20T12:45:44.453Z,5.53
2023-02-20T12:48:26.085Z,6.80
2023-02-20T12:51:31.354Z,6.70
2023-02-20T12:54:00.901Z,6.47
2023-02-20T12:56:39.608Z,5.28
2023-02-20T12:59:36.988Z,5.63
2023-02-20T13:02:18.741Z,5.63
2023-02-20T13:04:48.306Z,5.97
2023-02-20T13:07:18.900Z,6.20
2023-02-20T13:10:08.214Z,5.50
2023-02-20T13:12:34.655Z,5.20
2023-02-20T13:15:04.612Z,4.90
2023-02-20T13:17:37.038Z,6.10
2023-02-20T13:20:21.091Z,6.35
2023-02-20T13:23:05.862Z,6.18
2023-02-20T13:25:42.204Z,6.20
2023-02-20T13:28:20.817Z,6.28
2023-02-20T13:31:22.902Z,5.32
2023-02-20T13:33:51.661Z,5.68
2023-02-20T13:36:42.278Z,5.00
2023-02-20T13:39:21.337Z,4.47
2023-02-20T13:41:54.031Z,4.90
2023-02-20T13:44:35.790Z,4.47
2023-02-20T13:47:32.556Z,4.60
2023-02-20T13:50:00.636Z,11.90
2023-02-20T13:52:35.033Z,13.52
2023-02-20T13:55:10.559Z,9.55
2023-02-20T13:57:47.436Z,5.03
2023-02-20T14:00:28.373Z,4.47
2023-02-20T14:02:55.421Z,4.30
2023-02-20T14:05:29.382Z,4.50
2023-02-20T14:07:56.348Z,3.90
2023-02-20T14:10:25.861Z,4.28
2023-02-20T14:13:16.392Z,5.93
2023-02-20T14:15:50.266Z,5.43
2023-02-20T14:18:28.188Z,3.95
2023-02-20T14:21:19.060Z,4.22
2023-02-20T14:23:47.303Z,3.97
2023-02-20T14:26:24.361Z,4.05
2023-02-20T14:28:53.997Z,4.18
2023-02-20T14:31:25.699Z,4.22
2023-02-20T14:33:58.295Z,3.88
2023-02-20T14:36:52.578Z,7.95
2023-02-20T14:39:40.722Z,4.50
2023-02-20T14:42:15.259Z,8.70
2023-02-20T14:44:41.818Z,4.10
2023-02-20T14:47:16.668Z,3.30
2023-02-20T14:49:43.532Z,3.47
2023-02-20T14:52:09.834Z,3.97
2023-02-20T14:54:41.177Z,3.65
2023-02-20T14:57:10.385Z,3.45
2023-02-20T14:59:39.790Z,3.53
2023-02-20T15:02:06.151Z,3.70
2023-02-20T15:04:32.607Z,3.80
2023-02-20T15:07:06.366Z,3.70
2023-02-20T15:09:44.412Z,4.00
2023-02-20T15:12:31.306Z,3.58
2023-02-20T15:15:03.846Z,3.15
2023-02-20T15:17:32.076Z,3.50
2023-02-20T15:19:58.901Z,3.50
2023-02-20T15:22:32.517Z,3.22
2023-02-20T15:25:29.050Z,3.20
2023-02-20T15:28:24.297Z,4.40
2023-02-20T15:31:02.896Z,3.75
2023-02-20T15:33:30.635Z,3.10
2023-02-20T15:35:58.851Z,3.63
2023-02-20T15:38:30.854Z,3.47
2023-02-20T15:40:58.473Z,3.53
2023-02-20T15:43:52.112Z,3.17
2023-02-20T15:46:12.619Z,3.92
2023-02-20T15:48:39.323Z,4.85
2023-02-20T15:51:06.219Z,4.30
2023-02-20T15:53:33.242Z,4.20
2023-02-20T15:56:01.828Z,3.33
2023-02-20T15:58:38.164Z,3.42
2023-02-20T16:01:06.671Z,4.00
2023-02-20T16:03:41.890Z,3.05
2023-02-20T16:06:12.154Z,3.42
2023-02-20T16:08:38.853Z,3.90
2023-02-20T16:11:05.542Z,4.10
2023-02-20T16:13:35.739Z,4.00
2023-02-20T16:16:24.676Z,5.20
2023-02-20T16:18:54.576Z,4.68
2023-02-20T16:21:22.069Z,4.55
2023-02-20T16:23:50.108Z,4.35
2023-02-20T16:26:17.850Z,4.88
2023-02-20T16:28:45.564Z,5.43
2023-02-20T16:31:12.737Z,4.38
2023-02-20T16:33:39.308Z,4.80
2023-02-20T16:36:08.883Z,4.43
2023-02-20T16:38:37.492Z,5.45
2023-02-20T16:41:04.308Z,6.00
2023-02-20T16:43:30.849Z,7.10
2023-02-20T16:45:57.263Z,7.82
2023-02-20T16:48:23.709Z,7.45
2023-02-20T16:50:53.477Z,4.20
2023-02-20T16:53:20.518Z,4.25
2023-02-20T16:55:47.328Z,3.50
2023-02-20T16:58:14.141Z,4.30
2023-02-20T17:00:56.289Z,7.07
2023-02-20T17:03:24.134Z,8.00
2023-02-20T17:05:58.015Z,8.23
2023-02-20T17:08:24.422Z,8.10
2023-02-20T17:10:50.896Z,6.95
2023-02-20T17:13:17.369Z,6.68
2023-02-20T17:15:44.678Z,5.40
2023-02-20T17:18:11.200Z,8.52
2023-02-20T17:20:38.605Z,9.75
2023-02-20T17:23:05.605Z,10.70
2023-02-20T17:25:33.013Z,10.73
2023-02-20T17:27:59.501Z,7.47
2023-02-20T17:30:26.284Z,7.65
2023-02-20T17:32:53.049Z,8.15
2023-02-20T17:35:19.582Z,7.05
2023-02-20T17:37:46.037Z,6.43
2023-02-20T17:40:12.926Z,5.70
2023-02-20T17:42:39.401Z,5.80
2023-02-20T17:45:06.139Z,5.20
2023-02-20T17:47:33.332Z,4.97
2023-02-20T17:50:02.985Z,5.50
2023-02-20T17:52:29.604Z,5.95
2023-02-20T17:54:56.065Z,6.00
2023-02-20T17:57:22.607Z,5.90
2023-02-20T17:59:49.653Z,6.63
2023-02-20T18:02:16.969Z,6.13
2023-02-20T18:04:43.660Z,6.22
2023-02-20T18:07:10.746Z,5.40
2023-02-20T18:09:37.552Z,5.38
2023-02-20T18:12:04.548Z,5.18
2023-02-20T18:14:31.045Z,5.30
2023-02-20T18:16:58.519Z,5.20
2023-02-20T18:19:24.949Z,6.75
2023-02-20T18:21:52.750Z,6.85
2023-02-20T18:24:24.355Z,7.03
2023-02-20T18:26:51.970Z,6.70
2023-02-20T18:29:18.405Z,6.70
2023-02-20T18:31:44.904Z,6.10
2023-02-20T18:34:11.474Z,5.85
2023-02-20T18:36:37.948Z,6.25
2023-02-20T18:39:07.462Z,6.43
2023-02-20T18:41:34.643Z,5.88
2023-02-20T18:44:01.165Z,6.03
2023-02-20T18:46:30.589Z,6.28
2023-02-20T18:48:58.786Z,6.20
2023-02-20T18:51:33.745Z,5.70
2023-02-20T18:54:00.481Z,6.45
2023-02-20T18:56:26.958Z,6.68
2023-02-20T18:58:54.407Z,6.65
2023-02-20T19:01:21.368Z,5.78
2023-02-20T19:03:48.910Z,6.18
2023-02-20T19:06:29.479Z,4.97
2023-02-20T19:08:55.913Z,4.90
2023-02-20T19:11:22.736Z,4.43
2023-02-20T19:13:49.180Z,4.80
2023-02-20T19:16:16.108Z,4.60
2023-02-20T19:18:50.414Z,5.18
2023-02-20T19:21:17.976Z,4.22
2023-02-20T19:23:45.620Z,4.53
2023-02-20T19:26:12.335Z,4.45
2023-02-20T19:28:42.008Z,4.63
2023-02-20T19:31:09.540Z,4.07
2023-02-20T19:33:36.228Z,4.43
2023-02-20T19:36:02.993Z,4.45
2023-02-20T19:38:29.423Z,4.15
2023-02-20T19:40:55.868Z,4.28
2023-02-20T19:43:22.382Z,4.35
2023-02-20T19:45:48.932Z,4.72
2023-02-20T19:48:15.765Z,4.30
2023-02-20T19:50:42.165Z,4.50
2023-02-20T19:53:08.593Z,4.57
2023-02-20T19:55:35.109Z,4.53
2023-02-20T19:58:02.663Z,4.35
2023-02-20T20:00:29.674Z,4.60
2023-02-20T20:02:58.176Z,4.50
2023-02-20T20:05:25.379Z,4.50
2023-02-20T20:07:52.189Z,4.80
2023-02-20T20:10:20.601Z,4.50
2023-02-20T20:12:47.025Z,4.53
2023-02-20T20:15:18.528Z,4.75
2023-02-20T20:17:50.257Z,4.82
2023-02-20T20:20:18.023Z,5.18
2023-02-20T20:22:45.328Z,4.68
2023-02-20T20:25:13.329Z,4.43
2023-02-20T20:27:40.596Z,4.43
2023-02-20T20:30:08.599Z,5.18
2023-02-20T20:32:35.195Z,4.90
2023-02-20T20:35:01.948Z,4.60
2023-02-20T20:37:28.611Z,4.93
2023-02-20T20:39:57.272Z,5.40
2023-02-20T20:42:25.472Z,6.22
2023-02-20T20:44:53.080Z,6.45
2023-02-20T20:47:20.376Z,7.20
2023-02-20T20:49:46.945Z,6.68
2023-02-20T20:52:13.407Z,6.32
2023-02-20T20:54:39.821Z,6.60
2023-02-20T20:57:06.250Z,7.22
2023-02-20T20:59:32.668Z,6.68
2023-02-20T21:01:59.101Z,6.13
2023-02-20T21:04:27.333Z,6.30
2023-02-20T21:06:53.989Z,6.47
2023-02-20T21:09:20.488Z,5.55
2023-02-20T21:11:46.987Z,5.65
2023-02-20T21:14:13.482Z,5.38
2023-02-20T21:16:39.938Z,5.10
2023-02-20T21:19:06.525Z,5.80
2023-02-20T21:21:33.040Z,5.47
2023-02-20T21:23:59.535Z,5.40
2023-02-20T21:26:25.987Z,5.18
2023-02-20T21:28:55.171Z,5.15
2023-02-20T21:31:21.926Z,4.80
2023-02-20T21:33:52.759Z,5.43
2023-02-20T21:36:19.817Z,5.13
2023-02-20T21:38:46.331Z,5.45
2023-02-20T21:41:32.967Z,5.45
2023-02-20T21:44:18.234Z,5.65
2023-02-20T21:46:44.687Z,5.55
2023-02-20T21:49:11.170Z,4.88
2023-02-20T21:51:37.599Z,5.18
2023-02-20T21:54:04.152Z,5.60
2023-02-20T21:56:30.556Z,4.85
2023-02-20T21:59:05.736Z,5.00
2023-02-20T22:01:36.081Z,5.28
2023-02-20T22:04:03.724Z,5.18
2023-02-20T22:06:30.211Z,5.38
2023-02-20T22:09:15.742Z,5.28
2023-02-20T22:12:00.792Z,5.57
2023-02-20T22:14:46.266Z,5.22
2023-02-20T22:17:31.366Z,5.55
2023-02-20T22:20:16.308Z,5.85
2023-02-20T22:23:01.484Z,5.75
2023-02-20T22:25:46.563Z,5.10
2023-02-20T22:28:32.317Z,5.57
2023-02-20T22:31:19.468Z,5.28
2023-02-20T22:34:04.986Z,5.53
2023-02-20T22:36:50.256Z,5.43
2023-02-20T22:39:35.211Z,6.15
2023-02-20T22:42:29.637Z,7.07
2023-02-20T22:45:19.178Z,7.03
2023-02-20T22:48:04.204Z,7.63
2023-02-20T22:50:49.145Z,7.88
2023-02-20T22:53:33.914Z,7.57
2023-02-20T22:56:19.049Z,6.93
2023-02-20T22:59:04.040Z,7.45
2023-02-20T23:01:49.238Z,7.70
2023-02-20T23:04:34.334Z,8.15
2023-02-20T23:07:19.373Z,7.50
2023-02-20T23:10:04.252Z,7.35
2023-02-20T23:12:48.978Z,6.65
2023-02-20T23:15:34.384Z,6.55
2023-02-20T23:18:19.145Z,5.80
2023-02-20T23:21:04.208Z,5.80
2023-02-20T23:23:48.819Z,5.70
2023-02-20T23:26:33.539Z,5.75
2023-02-20T23:29:18.635Z,5.55
2023-02-20T23:32:03.656Z,5.63
2023-02-20T23:34:49.372Z,5.53
2023-02-20T23:37:34.307Z,5.85
2023-02-20T23:40:30.706Z,5.78
2023-02-20T23:43:19.628Z,5.80
2023-02-20T23:46:04.854Z,5.03
2023-02-20T23:48:50.046Z,5.90
2023-02-20T23:51:34.956Z,5.68
2023-02-20T23:54:20.075Z,5.68
2023-02-20T23:57:05.371Z,5.80
2023-02-20T23:59:50.239Z,5.63
